Impacts TAF Board
For situational awareness. Not to be used for flight planning purposes.
IDs:

KLAX - Los Angeles Intl, CA, US

Issued at 1735 UTC 20 Oct 2018
Updated at 2058 UTC 20 Oct 2018
Potential Impact None Slight Moderate High
Time<<21/21Z 21/22Z 21/23Z 22/00Z 22/01Z 22/02Z 22/03Z 22/04Z 22/05Z 22/06Z 22/07Z 22/08Z 22/09Z
Type PRVL PRVL PRVL
VIS >6 >6 >6
CIG -- -- --
Cover SCT SCT SCT
FltCat VFR VFR VFR
WX -- -- --
WDir 260 260 260
WSpd 12 12 12
WGst -- -- --
Raw TAF
KLAX 201735Z 2018/2124 12005KT P6SM SKC
  FM202000 25012KT P6SM SKC
  FM210300 25007KT P6SM SKC
  FM210500 VRB03KT P6SM SKC
  FM212000 26012KT P6SM SCT250


METAR Board
Radar Display
Forecast Discussion
For situational awareness. Not to be used for flight planning purposes.